createdAt,value
2022-08-24T00:01:05.473Z,7.37
2022-08-24T00:03:11.923Z,8.27
2022-08-24T00:05:15.244Z,7.90
2022-08-24T00:07:27.691Z,8.03
2022-08-24T00:09:31.943Z,8.23
2022-08-24T00:11:34.966Z,8.77
2022-08-24T00:13:39.279Z,7.60
2022-08-24T00:15:46.592Z,8.40
2022-08-24T00:17:50.961Z,8.23
2022-08-24T00:19:54.451Z,8.20
2022-08-24T00:21:57.639Z,8.00
2022-08-24T00:24:03.141Z,9.10
2022-08-24T00:26:07.144Z,8.07
2022-08-24T00:28:10.478Z,7.17
2022-08-24T00:30:16.478Z,7.90
2022-08-24T00:32:19.840Z,8.43
2022-08-24T00:34:25.570Z,7.70
2022-08-24T00:36:28.955Z,7.33
2022-08-24T00:38:31.970Z,7.57
2022-08-24T00:40:38.099Z,7.37
2022-08-24T00:42:41.882Z,7.53
2022-08-24T00:44:44.830Z,8.13
2022-08-24T00:46:51.479Z,7.47
2022-08-24T00:49:00.621Z,7.40
2022-08-24T00:51:07.296Z,7.37
2022-08-24T00:53:13.562Z,8.00
2022-08-24T00:55:20.201Z,7.80
2022-08-24T00:57:27.191Z,8.80
2022-08-24T00:59:34.257Z,7.60
2022-08-24T01:01:37.415Z,7.73
2022-08-24T01:03:42.633Z,8.27
2022-08-24T01:05:46.972Z,7.53
2022-08-24T01:07:52.708Z,7.80
2022-08-24T01:10:03.780Z,7.90
2022-08-24T01:12:07.238Z,7.73
2022-08-24T01:14:10.232Z,8.10
2022-08-24T01:16:13.457Z,7.80
2022-08-24T01:18:37.404Z,7.40
2022-08-24T01:20:40.465Z,7.60
2022-08-24T01:22:54.053Z,7.37
2022-08-24T01:24:59.838Z,7.50
2022-08-24T01:27:03.160Z,7.77
2022-08-24T01:29:11.702Z,7.50
2022-08-24T01:31:16.699Z,7.67
2022-08-24T01:33:24.386Z,7.67
2022-08-24T01:35:27.831Z,7.60
2022-08-24T01:37:32.842Z,7.93
2022-08-24T01:39:37.866Z,7.20
2022-08-24T01:41:42.438Z,8.23
2022-08-24T01:43:47.316Z,7.80
2022-08-24T01:45:50.354Z,7.57
2022-08-24T01:47:53.398Z,7.30
2022-08-24T01:49:56.455Z,7.33
2022-08-24T01:51:59.807Z,8.10
2022-08-24T01:54:03.692Z,7.43
2022-08-24T01:56:07.906Z,7.63
2022-08-24T01:58:13.471Z,7.67
2022-08-24T02:00:18.410Z,7.47
2022-08-24T02:02:26.717Z,6.57
2022-08-24T02:04:29.786Z,7.27
2022-08-24T02:06:33.394Z,7.17
2022-08-24T02:08:36.473Z,7.23
2022-08-24T02:10:39.399Z,7.53
2022-08-24T02:12:43.646Z,8.00
2022-08-24T02:14:48.325Z,8.10
2022-08-24T02:16:51.369Z,7.10
2022-08-24T02:19:01.748Z,7.80
2022-08-24T02:21:04.856Z,7.27
2022-08-24T02:23:08.810Z,7.97
2022-08-24T02:25:11.833Z,7.40
2022-08-24T02:27:17.449Z,8.07
2022-08-24T02:29:20.725Z,7.30
2022-08-24T02:31:25.171Z,7.33
2022-08-24T02:33:28.263Z,7.10
2022-08-24T02:35:31.299Z,7.20
2022-08-24T02:37:34.586Z,7.43
2022-08-24T02:39:44.554Z,6.67
2022-08-24T02:41:52.787Z,7.03
2022-08-24T02:43:57.012Z,7.20
2022-08-24T02:46:00.352Z,7.17
2022-08-24T02:48:05.513Z,7.13
2022-08-24T02:50:10.368Z,6.87
2022-08-24T02:52:13.299Z,7.40
2022-08-24T02:54:18.407Z,7.67
2022-08-24T02:56:26.961Z,8.03
2022-08-24T02:58:30.244Z,7.03
2022-08-24T03:00:33.616Z,7.70
2022-08-24T03:02:37.298Z,7.50
2022-08-24T03:04:41.756Z,7.23
2022-08-24T03:06:45.005Z,7.30
2022-08-24T03:08:53.302Z,7.40
2022-08-24T03:11:00.416Z,7.90
2022-08-24T03:13:03.598Z,7.80
2022-08-24T03:15:10.437Z,8.10
2022-08-24T03:17:13.753Z,7.63
2022-08-24T03:19:15.850Z,7.53
2022-08-24T03:21:21.923Z,7.53
2022-08-24T03:23:26.152Z,7.43
2022-08-24T03:25:29.639Z,7.57
2022-08-24T03:27:32.903Z,7.23
2022-08-24T03:29:36.600Z,7.90
2022-08-24T03:31:39.713Z,7.80
2022-08-24T03:33:43.104Z,8.30
2022-08-24T03:35:46.642Z,8.30
2022-08-24T03:37:53.900Z,7.77
2022-08-24T03:39:56.871Z,8.20
2022-08-24T03:41:59.936Z,8.30
2022-08-24T03:44:03.347Z,8.27
2022-08-24T03:46:09.548Z,7.63
2022-08-24T03:48:14.304Z,8.13
2022-08-24T03:50:18.216Z,8.23
2022-08-24T03:52:21.906Z,8.43
2022-08-24T03:54:26.791Z,8.37
2022-08-24T03:56:32.050Z,8.07
2022-08-24T03:58:36.193Z,8.40
2022-08-24T04:00:42.384Z,8.00
2022-08-24T04:02:48.138Z,8.00
2022-08-24T04:04:55.391Z,8.30
2022-08-24T04:06:58.438Z,8.20
2022-08-24T04:09:03.165Z,8.60
2022-08-24T04:11:13.510Z,7.77
2022-08-24T04:13:19.132Z,8.80
2022-08-24T04:15:24.413Z,8.47
2022-08-24T04:17:27.754Z,8.50
2022-08-24T04:19:30.791Z,8.10
2022-08-24T04:21:36.425Z,8.37
2022-08-24T04:23:47.708Z,8.20
2022-08-24T04:25:52.255Z,8.60
2022-08-24T04:27:56.799Z,8.10
2022-08-24T04:30:00.227Z,7.90
2022-08-24T04:32:08.413Z,8.23
2022-08-24T04:34:12.670Z,7.93
2022-08-24T04:36:15.617Z,8.17
2022-08-24T04:38:20.735Z,7.97
2022-08-24T04:40:40.642Z,8.67
2022-08-24T04:42:44.720Z,8.20
2022-08-24T04:44:49.095Z,7.83
2022-08-24T04:46:52.120Z,8.10
2022-08-24T04:48:56.203Z,8.63
2022-08-24T04:51:02.859Z,7.90
2022-08-24T04:53:07.960Z,9.03
2022-08-24T04:55:11.049Z,7.80
2022-08-24T04:57:17.972Z,8.20
2022-08-24T04:59:22.116Z,8.80
2022-08-24T05:01:29.195Z,8.50
2022-08-24T05:03:33.116Z,8.97
2022-08-24T05:05:36.557Z,8.37
2022-08-24T05:07:39.768Z,8.93
2022-08-24T05:09:42.776Z,8.70
2022-08-24T05:11:49.903Z,8.53
2022-08-24T05:13:58.189Z,9.03
2022-08-24T05:16:01.582Z,8.00
2022-08-24T05:18:07.616Z,9.00
2022-08-24T05:20:12.395Z,8.20
2022-08-24T05:22:15.703Z,8.90
2022-08-24T05:24:23.305Z,8.63
2022-08-24T05:26:28.610Z,8.50
2022-08-24T05:28:31.790Z,8.50
2022-08-24T05:30:36.504Z,8.63
2022-08-24T05:32:42.352Z,8.50
2022-08-24T05:34:46.724Z,8.70
2022-08-24T05:36:49.956Z,8.77
2022-08-24T05:39:11.366Z,8.73
2022-08-24T05:41:16.731Z,8.30
2022-08-24T05:43:21.459Z,8.30
2022-08-24T05:45:24.481Z,8.70
2022-08-24T05:47:28.912Z,8.30
2022-08-24T05:49:40.786Z,8.47
2022-08-24T05:51:46.165Z,8.80
2022-08-24T05:53:49.387Z,8.50
2022-08-24T05:55:52.896Z,8.43
2022-08-24T05:57:56.747Z,8.23
2022-08-24T06:00:01.495Z,8.13
2022-08-24T06:02:04.799Z,9.00
2022-08-24T06:04:08.508Z,8.50
2022-08-24T06:06:13.458Z,8.83
2022-08-24T06:08:18.091Z,8.37
2022-08-24T06:10:36.319Z,8.50
2022-08-24T06:12:40.813Z,8.90
2022-08-24T06:14:47.450Z,8.70
2022-08-24T06:16:52.462Z,9.27
2022-08-24T06:18:56.551Z,8.23
2022-08-24T06:21:06.360Z,7.90
2022-08-24T06:23:09.414Z,8.50
2022-08-24T06:25:36.548Z,8.50
2022-08-24T06:27:41.569Z,8.07
2022-08-24T06:29:44.723Z,9.33
2022-08-24T06:32:05.199Z,7.53
2022-08-24T06:34:08.965Z,7.83
2022-08-24T06:36:12.246Z,7.70
2022-08-24T06:38:15.321Z,7.20
2022-08-24T06:40:22.656Z,7.23
2022-08-24T06:42:26.353Z,7.70
2022-08-24T06:44:29.413Z,7.50
2022-08-24T06:46:41.051Z,7.80
2022-08-24T06:48:44.596Z,6.93
2022-08-24T06:50:48.239Z,6.70
2022-08-24T06:52:51.352Z,6.43
2022-08-24T06:54:54.452Z,6.00
2022-08-24T06:56:59.176Z,6.53
2022-08-24T06:59:03.364Z,6.63
2022-08-24T07:01:10.948Z,6.00
2022-08-24T07:03:14.363Z,5.47
2022-08-24T07:05:26.049Z,5.70
2022-08-24T07:08:01.481Z,6.17
2022-08-24T07:10:05.531Z,6.57
2022-08-24T07:12:10.307Z,6.50
2022-08-24T07:14:13.386Z,6.50
2022-08-24T07:16:18.746Z,5.77
2022-08-24T07:18:23.415Z,5.40
2022-08-24T07:20:26.921Z,7.53
2022-08-24T07:22:48.439Z,6.00
2022-08-24T07:24:51.630Z,5.37
2022-08-24T07:26:55.482Z,5.83
2022-08-24T07:29:05.433Z,4.63
2022-08-24T07:31:17.078Z,5.17
2022-08-24T07:33:29.503Z,5.67
2022-08-24T07:35:34.422Z,5.23
2022-08-24T07:37:41.446Z,4.97
2022-08-24T07:39:46.236Z,5.07
2022-08-24T07:42:11.928Z,5.03
2022-08-24T07:44:15.511Z,4.90
2022-08-24T07:46:18.601Z,4.90
2022-08-24T07:48:21.782Z,4.77
2022-08-24T07:50:26.018Z,4.87
2022-08-24T07:52:29.090Z,4.43
2022-08-24T07:54:32.417Z,4.80
2022-08-24T07:56:35.665Z,4.80
2022-08-24T07:58:39.599Z,4.80
2022-08-24T08:00:48.568Z,4.43
2022-08-24T08:02:51.671Z,4.30
2022-08-24T08:04:56.600Z,4.00
2022-08-24T08:07:02.039Z,4.37
2022-08-24T08:09:07.831Z,4.30
2022-08-24T08:11:11.209Z,3.80
2022-08-24T08:13:16.904Z,4.03
2022-08-24T08:15:20.043Z,4.67
2022-08-24T08:17:33.016Z,3.90
2022-08-24T08:19:36.313Z,4.43
2022-08-24T08:22:00.621Z,4.20
2022-08-24T08:24:16.620Z,3.70
2022-08-24T08:26:27.711Z,4.53
2022-08-24T08:28:43.501Z,4.03
2022-08-24T08:30:46.883Z,3.23
2022-08-24T08:32:51.353Z,3.37
2022-08-24T08:34:55.985Z,2.87
2022-08-24T08:37:01.310Z,2.80
2022-08-24T08:39:06.512Z,2.93
2022-08-24T08:41:32.269Z,2.70
2022-08-24T08:43:52.664Z,2.70
2022-08-24T08:46:09.854Z,2.70
2022-08-24T08:49:17.757Z,2.47
2022-08-24T08:51:50.562Z,2.90
2022-08-24T08:54:16.103Z,2.90
2022-08-24T08:56:24.057Z,2.60
2022-08-24T08:58:57.263Z,2.50
2022-08-24T09:01:12.284Z,2.80
2022-08-24T09:03:33.969Z,2.53
2022-08-24T09:06:22.423Z,2.80
2022-08-24T09:08:35.157Z,3.00
2022-08-24T09:10:51.829Z,2.70
2022-08-24T09:13:09.167Z,2.33
2022-08-24T09:15:21.956Z,2.40
2022-08-24T09:17:41.796Z,3.50
2022-08-24T09:19:57.743Z,3.07
2022-08-24T09:22:22.955Z,2.70
2022-08-24T09:24:59.567Z,3.00
2022-08-24T09:27:25.708Z,2.73
2022-08-24T09:29:42.771Z,2.50
2022-08-24T09:31:58.826Z,2.50
2022-08-24T09:34:10.394Z,3.00
2022-08-24T09:36:19.822Z,2.60
2022-08-24T09:38:34.209Z,2.90
2022-08-24T09:40:45.588Z,3.00
2022-08-24T09:43:16.260Z,2.90
2022-08-24T09:45:35.260Z,2.50
2022-08-24T09:48:15.771Z,2.40
2022-08-24T09:50:51.768Z,2.43
2022-08-24T09:53:38.734Z,2.30
2022-08-24T09:55:58.969Z,2.60
2022-08-24T09:58:17.444Z,2.80
2022-08-24T10:00:25.817Z,2.03
2022-08-24T10:02:38.776Z,2.60
2022-08-24T10:04:51.120Z,2.50
2022-08-24T10:07:00.987Z,2.63
2022-08-24T10:09:24.491Z,2.70
2022-08-24T10:11:35.548Z,2.73
2022-08-24T10:13:47.067Z,3.10
2022-08-24T10:16:03.253Z,3.00
2022-08-24T10:18:18.651Z,2.90
2022-08-24T10:20:24.608Z,3.17
2022-08-24T10:22:40.373Z,2.90
2022-08-24T10:24:56.065Z,3.20
2022-08-24T10:27:14.232Z,3.43
2022-08-24T10:29:29.652Z,2.77
2022-08-24T10:31:37.618Z,2.90
2022-08-24T10:33:55.001Z,2.97
2022-08-24T10:36:11.835Z,3.50
2022-08-24T10:38:51.361Z,3.10
2022-08-24T10:41:11.548Z,3.10
2022-08-24T10:43:48.499Z,2.90
2022-08-24T10:46:17.421Z,2.90
2022-08-24T10:48:39.157Z,3.50
2022-08-24T10:50:54.647Z,3.43
2022-08-24T10:53:15.796Z,2.87
2022-08-24T10:55:22.388Z,3.10
2022-08-24T10:57:32.107Z,3.10
2022-08-24T10:59:40.548Z,3.20
2022-08-24T11:02:02.123Z,3.40
2022-08-24T11:04:14.506Z,3.00
2022-08-24T11:06:18.703Z,2.90
2022-08-24T11:08:24.413Z,2.47
2022-08-24T11:10:30.378Z,2.90
2022-08-24T11:12:42.597Z,3.00
2022-08-24T11:14:48.672Z,3.00
2022-08-24T11:16:55.857Z,3.40
2022-08-24T11:19:02.318Z,2.40
2022-08-24T11:21:05.536Z,2.90
2022-08-24T11:23:10.503Z,3.00
2022-08-24T11:25:18.409Z,2.53
2022-08-24T11:27:30.520Z,2.57
2022-08-24T11:30:03.467Z,3.27
2022-08-24T11:32:06.716Z,2.67
2022-08-24T11:34:10.813Z,2.60
2022-08-24T11:36:17.424Z,3.00
2022-08-24T11:38:27.348Z,3.30
2022-08-24T11:40:32.056Z,3.20
2022-08-24T11:42:43.335Z,2.60
2022-08-24T11:44:50.809Z,2.83
2022-08-24T11:46:59.039Z,3.20
2022-08-24T11:49:08.995Z,2.90
2022-08-24T11:51:16.708Z,2.60
2022-08-24T11:53:28.469Z,3.10
2022-08-24T11:55:47.427Z,2.80
2022-08-24T11:58:02.352Z,3.27
2022-08-24T12:00:10.953Z,2.73
2022-08-24T12:02:20.091Z,2.87
2022-08-24T12:04:36.608Z,3.03
2022-08-24T12:06:49.237Z,2.67
2022-08-24T12:08:54.903Z,2.97
2022-08-24T12:11:03.130Z,2.97
2022-08-24T12:13:11.248Z,2.80
2022-08-24T12:15:18.183Z,2.83
2022-08-24T12:17:25.806Z,2.97
2022-08-24T12:19:30.689Z,2.80
2022-08-24T12:21:35.491Z,2.70
2022-08-24T12:23:41.107Z,2.50
2022-08-24T12:26:04.960Z,2.90
2022-08-24T12:28:08.076Z,2.60
2022-08-24T12:30:14.780Z,2.77
2022-08-24T12:32:20.515Z,3.00
2022-08-24T12:34:30.794Z,2.73
2022-08-24T12:36:39.911Z,2.60
2022-08-24T12:38:46.673Z,2.80
2022-08-24T12:40:54.029Z,2.70
2022-08-24T12:43:00.976Z,2.83
2022-08-24T12:45:07.808Z,3.20
2022-08-24T12:47:13.503Z,3.10
2022-08-24T12:49:23.285Z,2.87
2022-08-24T12:51:31.979Z,2.90
2022-08-24T12:53:55.557Z,2.93
2022-08-24T12:56:32.964Z,3.40
2022-08-24T12:59:08.364Z,3.37
2022-08-24T13:01:12.834Z,3.13
2022-08-24T13:03:26.897Z,3.17
2022-08-24T13:05:40.874Z,3.30
2022-08-24T13:07:47.051Z,2.80
2022-08-24T13:10:06.947Z,3.63
2022-08-24T13:13:01.933Z,3.20
2022-08-24T13:15:26.256Z,3.00
2022-08-24T13:17:41.458Z,3.10
2022-08-24T13:19:46.032Z,2.93
2022-08-24T13:21:53.293Z,2.80
2022-08-24T13:24:31.050Z,3.20
2022-08-24T13:26:35.893Z,3.23
2022-08-24T13:28:42.108Z,3.20
2022-08-24T13:31:05.713Z,2.90
2022-08-24T13:33:11.380Z,3.00
2022-08-24T13:35:34.974Z,2.80
2022-08-24T13:37:38.442Z,2.50
2022-08-24T13:40:08.612Z,3.50
2022-08-24T13:42:53.617Z,2.90
2022-08-24T13:45:26.107Z,2.57
2022-08-24T13:47:33.782Z,2.80
2022-08-24T13:49:52.677Z,3.00
2022-08-24T13:52:08.563Z,2.60
2022-08-24T13:54:22.559Z,3.20
2022-08-24T13:56:47.613Z,2.73
2022-08-24T13:58:56.731Z,3.43
2022-08-24T14:01:05.161Z,2.80
2022-08-24T14:03:27.826Z,3.00
2022-08-24T14:05:35.877Z,3.27
2022-08-24T14:07:50.599Z,2.80
2022-08-24T14:10:05.663Z,2.97
2022-08-24T14:12:25.061Z,2.63
2022-08-24T14:14:50.988Z,2.93
2022-08-24T14:17:22.299Z,2.80
2022-08-24T14:19:31.908Z,2.40
2022-08-24T14:21:39.478Z,2.60
2022-08-24T14:23:52.573Z,2.80
2022-08-24T14:26:28.664Z,2.60
2022-08-24T14:28:37.912Z,2.73
2022-08-24T14:30:46.758Z,2.70
2022-08-24T14:33:08.020Z,2.60
2022-08-24T14:35:27.716Z,3.10
2022-08-24T14:37:36.961Z,2.73
2022-08-24T14:39:46.870Z,2.90
2022-08-24T14:41:58.757Z,2.70
2022-08-24T14:44:11.812Z,2.87
2022-08-24T14:46:22.450Z,3.00
2022-08-24T14:48:35.926Z,2.60
2022-08-24T14:50:43.232Z,3.00
2022-08-24T14:53:14.370Z,2.67
2022-08-24T14:55:29.745Z,2.60
2022-08-24T14:57:54.390Z,2.50
2022-08-24T15:00:08.222Z,2.67
2022-08-24T15:02:38.717Z,2.50
2022-08-24T15:04:44.539Z,2.30
2022-08-24T15:06:49.994Z,2.53
2022-08-24T15:08:55.691Z,2.93
2022-08-24T15:11:03.834Z,3.10
2022-08-24T15:13:13.165Z,2.87
2022-08-24T15:15:23.789Z,2.60
2022-08-24T15:17:39.545Z,2.80
2022-08-24T15:19:48.800Z,2.70
2022-08-24T15:21:57.652Z,2.90
2022-08-24T15:24:10.158Z,2.57
2022-08-24T15:26:18.947Z,2.93
2022-08-24T15:28:25.676Z,3.00
2022-08-24T15:30:31.177Z,3.10
2022-08-24T15:32:44.923Z,2.87
2022-08-24T15:34:50.592Z,2.83
2022-08-24T15:37:01.580Z,2.90
2022-08-24T15:39:05.885Z,2.80
2022-08-24T15:41:12.608Z,2.67
2022-08-24T15:43:16.168Z,2.60
2022-08-24T15:45:20.967Z,2.17
2022-08-24T15:47:27.846Z,2.60
2022-08-24T15:49:35.805Z,2.57
2022-08-24T15:51:45.595Z,3.10
2022-08-24T15:53:48.801Z,2.67
2022-08-24T15:55:53.421Z,2.70
2022-08-24T15:57:57.431Z,2.40
2022-08-24T16:00:08.685Z,2.67
2022-08-24T16:02:26.111Z,2.57
2022-08-24T16:04:47.208Z,2.60
2022-08-24T16:06:50.259Z,2.37
2022-08-24T16:09:01.858Z,2.43
2022-08-24T16:11:20.310Z,2.60
2022-08-24T16:13:29.059Z,2.40
2022-08-24T16:15:32.221Z,2.30
2022-08-24T16:17:37.848Z,2.37
2022-08-24T16:19:40.989Z,2.60
2022-08-24T16:21:54.611Z,2.77
2022-08-24T16:24:02.555Z,2.73
2022-08-24T16:26:21.394Z,2.30
2022-08-24T16:28:36.592Z,2.13
2022-08-24T16:30:50.029Z,2.47
2022-08-24T16:32:54.973Z,2.37
2022-08-24T16:35:16.707Z,2.37
2022-08-24T16:37:21.703Z,2.40
2022-08-24T16:39:25.498Z,2.40
2022-08-24T16:41:28.523Z,2.40
2022-08-24T16:43:31.612Z,2.70
2022-08-24T16:45:36.156Z,2.40
2022-08-24T16:47:39.368Z,2.30
2022-08-24T16:49:42.343Z,2.20
2022-08-24T16:51:45.731Z,2.40
2022-08-24T16:53:50.295Z,2.50
2022-08-24T16:55:53.668Z,2.40
2022-08-24T16:57:56.882Z,2.53
2022-08-24T17:00:00.074Z,2.30
2022-08-24T17:02:03.212Z,2.77
2022-08-24T17:04:08.893Z,2.90
2022-08-24T17:06:13.203Z,2.73
2022-08-24T17:08:16.189Z,2.63
2022-08-24T17:10:23.133Z,2.43
2022-08-24T17:12:26.996Z,2.60
2022-08-24T17:14:29.987Z,3.10
2022-08-24T17:16:33.095Z,2.90
2022-08-24T17:18:36.215Z,3.10
2022-08-24T17:20:39.400Z,2.57
2022-08-24T17:22:42.478Z,2.87
2022-08-24T17:24:45.657Z,3.07
2022-08-24T17:26:52.196Z,2.47
2022-08-24T17:28:55.534Z,3.23
2022-08-24T17:30:58.770Z,2.80
2022-08-24T17:33:01.788Z,3.13
2022-08-24T17:35:05.369Z,2.63
2022-08-24T17:37:08.800Z,2.97
2022-08-24T17:39:12.758Z,2.57
2022-08-24T17:41:18.490Z,2.90
2022-08-24T17:43:24.778Z,2.30
2022-08-24T17:45:28.007Z,2.60
2022-08-24T17:47:31.212Z,2.70
2022-08-24T17:49:34.561Z,2.73
2022-08-24T17:51:37.561Z,3.23
2022-08-24T17:53:41.473Z,3.03
2022-08-24T17:55:44.602Z,3.20
2022-08-24T17:57:49.002Z,2.80
2022-08-24T17:59:54.640Z,3.03
2022-08-24T18:01:59.230Z,2.73
2022-08-24T18:04:02.353Z,2.87
2022-08-24T18:06:05.662Z,2.87
2022-08-24T18:08:09.423Z,3.10
2022-08-24T18:10:23.819Z,3.33
2022-08-24T18:12:27.527Z,2.60
2022-08-24T18:14:31.401Z,2.57
2022-08-24T18:16:35.847Z,2.60
2022-08-24T18:18:38.868Z,2.83
2022-08-24T18:20:42.421Z,3.03
2022-08-24T18:22:47.230Z,2.80
2022-08-24T18:24:53.725Z,2.40
2022-08-24T18:26:57.468Z,2.87
2022-08-24T18:29:05.699Z,3.03
2022-08-24T18:31:10.418Z,2.50
2022-08-24T18:33:15.005Z,2.70
2022-08-24T18:35:18.239Z,2.50
2022-08-24T18:37:21.318Z,3.00
2022-08-24T18:39:24.468Z,3.00
2022-08-24T18:41:32.405Z,3.67
2022-08-24T18:43:37.911Z,3.47
2022-08-24T18:45:41.134Z,3.17
2022-08-24T18:47:44.367Z,2.93
2022-08-24T18:49:57.330Z,2.80
2022-08-24T18:52:04.232Z,2.50
2022-08-24T18:54:10.739Z,3.13
2022-08-24T18:56:14.039Z,3.10
2022-08-24T18:58:17.050Z,3.00
2022-08-24T19:00:20.404Z,3.17
2022-08-24T19:02:33.959Z,3.20
2022-08-24T19:04:43.795Z,3.70
2022-08-24T19:06:48.313Z,3.20
2022-08-24T19:08:51.415Z,3.17
2022-08-24T19:10:54.456Z,3.20
2022-08-24T19:12:59.794Z,3.73
2022-08-24T19:15:03.534Z,3.10
2022-08-24T19:17:07.400Z,3.20
2022-08-24T19:19:11.948Z,3.17
2022-08-24T19:21:15.147Z,3.40
2022-08-24T19:23:22.563Z,3.10
2022-08-24T19:25:28.147Z,3.33
2022-08-24T19:27:31.470Z,4.10
2022-08-24T19:31:58.708Z,3.70
2022-08-24T19:34:03.295Z,3.80
2022-08-24T19:36:07.091Z,3.30
2022-08-24T19:38:10.215Z,3.87
2022-08-24T19:40:14.738Z,3.93
2022-08-24T19:42:18.588Z,3.50
2022-08-24T19:44:39.467Z,3.50
2022-08-24T19:46:42.786Z,3.70
2022-08-24T19:48:45.992Z,3.47
2022-08-24T19:50:49.089Z,3.50
2022-08-24T19:52:52.187Z,3.77
2022-08-24T19:54:56.160Z,3.77
2022-08-24T19:57:01.055Z,3.77
2022-08-24T19:59:08.347Z,3.50
2022-08-24T20:01:14.311Z,3.57
2022-08-24T20:03:18.004Z,3.60
2022-08-24T20:05:22.466Z,4.20
2022-08-24T20:07:25.566Z,4.00
2022-08-24T20:09:29.183Z,3.30
2022-08-24T20:11:32.446Z,3.70
2022-08-24T20:13:37.277Z,4.07
2022-08-24T20:15:40.792Z,4.10
2022-08-24T20:17:43.923Z,3.40
2022-08-24T20:19:47.000Z,4.00
2022-08-24T20:21:50.099Z,3.53
2022-08-24T20:23:53.301Z,3.93
2022-08-24T20:25:56.490Z,3.47
2022-08-24T20:28:25.514Z,3.87
2022-08-24T20:30:25.618Z,3.50
2022-08-24T20:32:29.340Z,3.57
2022-08-24T20:34:32.452Z,3.57
2022-08-24T20:36:37.516Z,3.73
2022-08-24T20:38:40.948Z,3.83
2022-08-24T20:40:44.533Z,3.70
2022-08-24T20:42:47.692Z,4.13
2022-08-24T20:44:50.749Z,4.03
2022-08-24T20:46:56.020Z,3.73
2022-08-24T20:48:59.313Z,4.13
2022-08-24T20:51:02.601Z,3.90
2022-08-24T20:53:06.165Z,4.20
2022-08-24T20:55:10.627Z,4.30
2022-08-24T20:57:17.287Z,4.87
2022-08-24T20:59:20.676Z,4.83
2022-08-24T21:01:24.852Z,4.73
2022-08-24T21:03:29.419Z,4.17
2022-08-24T21:05:32.665Z,4.50
2022-08-24T21:07:35.978Z,4.70
2022-08-24T21:09:39.467Z,4.60
2022-08-24T21:11:43.188Z,5.10
2022-08-24T21:13:46.644Z,4.97
2022-08-24T21:15:51.723Z,4.50
2022-08-24T21:17:55.024Z,5.37
2022-08-24T21:19:59.534Z,5.43
2022-08-24T21:22:03.805Z,4.90
2022-08-24T21:24:08.070Z,5.03
2022-08-24T21:26:14.010Z,5.70
2022-08-24T21:28:17.657Z,5.60
2022-08-24T21:30:23.119Z,5.60
2022-08-24T21:32:44.028Z,5.70
2022-08-24T21:34:47.161Z,5.80
2022-08-24T21:36:52.600Z,6.13
2022-08-24T21:38:57.287Z,4.80
2022-08-24T21:41:00.670Z,5.60
2022-08-24T21:43:09.323Z,5.30
2022-08-24T21:45:18.399Z,5.50
2022-08-24T21:47:21.402Z,5.70
2022-08-24T21:49:24.690Z,4.97
2022-08-24T21:51:28.342Z,5.67
2022-08-24T21:53:32.871Z,5.67
2022-08-24T21:55:37.992Z,5.37
2022-08-24T21:57:41.447Z,5.67
2022-08-24T21:59:44.597Z,5.33
2022-08-24T22:01:48.020Z,5.03
2022-08-24T22:03:51.231Z,5.50
2022-08-24T22:05:54.397Z,5.57
2022-08-24T22:07:57.844Z,5.30
2022-08-24T22:10:02.312Z,5.30
2022-08-24T22:12:05.875Z,5.87
2022-08-24T22:14:09.004Z,5.40
2022-08-24T22:16:12.525Z,5.90
2022-08-24T22:18:15.846Z,5.60
2022-08-24T22:20:23.443Z,6.00
2022-08-24T22:22:27.695Z,5.37
2022-08-24T22:24:30.784Z,5.90
2022-08-24T22:26:35.740Z,6.00
2022-08-24T22:28:41.292Z,5.23
2022-08-24T22:30:47.941Z,6.17
2022-08-24T22:32:52.105Z,6.43
2022-08-24T22:34:55.707Z,5.57
2022-08-24T22:37:00.983Z,5.90
2022-08-24T22:39:05.531Z,6.10
2022-08-24T22:41:09.148Z,5.80
2022-08-24T22:43:13.668Z,5.93
2022-08-24T22:45:16.023Z,5.87
2022-08-24T22:47:19.734Z,5.90
2022-08-24T22:49:25.731Z,6.30
2022-08-24T22:51:32.204Z,5.70
2022-08-24T22:53:35.140Z,6.10
2022-08-24T22:55:38.149Z,6.07
2022-08-24T22:57:41.214Z,5.80
2022-08-24T22:59:46.561Z,6.20
2022-08-24T23:01:51.228Z,6.80
2022-08-24T23:03:55.428Z,5.93
2022-08-24T23:05:58.544Z,5.53
2022-08-24T23:08:01.844Z,5.70
2022-08-24T23:10:06.511Z,6.70
2022-08-24T23:12:11.799Z,6.40
2022-08-24T23:14:15.902Z,6.17
2022-08-24T23:16:20.384Z,5.87
2022-08-24T23:18:43.230Z,6.47
2022-08-24T23:20:46.227Z,6.23
2022-08-24T23:22:49.921Z,6.10
2022-08-24T23:24:52.934Z,6.30
2022-08-24T23:26:56.117Z,6.10
2022-08-24T23:28:59.335Z,6.17
2022-08-24T23:31:06.708Z,5.97
2022-08-24T23:33:11.162Z,6.23
2022-08-24T23:35:14.200Z,6.27
2022-08-24T23:37:18.549Z,6.00
2022-08-24T23:39:22.139Z,6.33
2022-08-24T23:41:27.665Z,6.10
2022-08-24T23:43:30.688Z,6.20
2022-08-24T23:45:33.734Z,6.37
2022-08-24T23:47:36.721Z,6.33
2022-08-24T23:49:41.733Z,5.70
2022-08-24T23:51:44.757Z,6.20
2022-08-24T23:53:49.054Z,5.90
2022-08-24T23:55:52.335Z,5.97
2022-08-24T23:57:56.156Z,6.13
